sensor_id;sensor_type;location;lat;lon;timestamp;P1;durP1;ratioP1;P2;durP2;ratioP2
3845;SDS011;1938;50.812;7.738;2024-03-02T00:01:56;6.90;;;2.70;;
3845;SDS011;1938;50.812;7.738;2024-03-02T00:04:22;7.30;;;3.57;;
3845;SDS011;1938;50.812;7.738;2024-03-02T00:06:47;7.40;;;2.77;;
3845;SDS011;1938;50.812;7.738;2024-03-02T00:09:13;5.50;;;2.90;;
3845;SDS011;1938;50.812;7.738;2024-03-02T00:11:41;6.40;;;3.17;;
3845;SDS011;1938;50.812;7.738;2024-03-02T00:14:06;6.00;;;2.93;;
3845;SDS011;1938;50.812;7.738;2024-03-02T00:16:32;5.90;;;2.90;;
3845;SDS011;1938;50.812;7.738;2024-03-02T00:19:02;5.30;;;2.60;;
3845;SDS011;1938;50.812;7.738;2024-03-02T00:21:29;5.20;;;2.37;;
3845;SDS011;1938;50.812;7.738;2024-03-02T00:23:55;5.37;;;2.53;;
3845;SDS011;1938;50.812;7.738;2024-03-02T00:26:22;9.50;;;3.00;;
3845;SDS011;1938;50.812;7.738;2024-03-02T00:28:47;12.80;;;2.77;;
3845;SDS011;1938;50.812;7.738;2024-03-02T00:31:15;7.00;;;2.90;;
3845;SDS011;1938;50.812;7.738;2024-03-02T00:33:47;5.80;;;2.77;;
3845;SDS011;1938;50.812;7.738;2024-03-02T00:36:14;5.07;;;2.40;;
3845;SDS011;1938;50.812;7.738;2024-03-02T00:38:46;8.43;;;3.03;;
3845;SDS011;1938;50.812;7.738;2024-03-02T00:41:16;6.27;;;2.73;;
3845;SDS011;1938;50.812;7.738;2024-03-02T00:43:47;7.50;;;3.00;;
3845;SDS011;1938;50.812;7.738;2024-03-02T00:46:22;5.43;;;2.80;;
3845;SDS011;1938;50.812;7.738;2024-03-02T00:51:24;4.73;;;2.53;;
3845;SDS011;1938;50.812;7.738;2024-03-02T00:53:55;6.53;;;3.43;;
3845;SDS011;1938;50.812;7.738;2024-03-02T00:56:23;5.13;;;2.67;;
3845;SDS011;1938;50.812;7.738;2024-03-02T00:58:49;6.57;;;3.00;;
3845;SDS011;1938;50.812;7.738;2024-03-02T01:01:15;6.57;;;2.83;;
3845;SDS011;1938;50.812;7.738;2024-03-02T01:03:42;6.20;;;2.27;;
3845;SDS011;1938;50.812;7.738;2024-03-02T01:06:07;5.50;;;2.60;;
3845;SDS011;1938;50.812;7.738;2024-03-02T01:08:37;8.00;;;3.30;;
3845;SDS011;1938;50.812;7.738;2024-03-02T01:11:03;8.20;;;3.07;;
3845;SDS011;1938;50.812;7.738;2024-03-02T01:13:30;8.13;;;2.93;;
3845;SDS011;1938;50.812;7.738;2024-03-02T01:15:56;5.87;;;2.63;;
3845;SDS011;1938;50.812;7.738;2024-03-02T01:18:21;7.00;;;3.13;;
3845;SDS011;1938;50.812;7.738;2024-03-02T01:20:47;5.97;;;2.53;;
3845;SDS011;1938;50.812;7.738;2024-03-02T01:23:13;5.30;;;2.70;;
3845;SDS011;1938;50.812;7.738;2024-03-02T01:25:39;9.70;;;2.77;;
3845;SDS011;1938;50.812;7.738;2024-03-02T01:28:05;5.83;;;3.37;;
3845;SDS011;1938;50.812;7.738;2024-03-02T01:30:30;8.47;;;3.50;;
3845;SDS011;1938;50.812;7.738;2024-03-02T01:32:56;5.50;;;2.70;;
3845;SDS011;1938;50.812;7.738;2024-03-02T01:35:24;5.97;;;2.87;;
3845;SDS011;1938;50.812;7.738;2024-03-02T01:37:49;6.60;;;3.40;;
3845;SDS011;1938;50.812;7.738;2024-03-02T01:40:15;8.47;;;3.60;;
3845;SDS011;1938;50.812;7.738;2024-03-02T01:42:40;6.60;;;3.43;;
3845;SDS011;1938;50.812;7.738;2024-03-02T01:45:06;6.70;;;3.00;;
3845;SDS011;1938;50.812;7.738;2024-03-02T01:47:33;6.40;;;3.00;;
3845;SDS011;1938;50.812;7.738;2024-03-02T01:49:59;8.00;;;3.17;;
3845;SDS011;1938;50.812;7.738;2024-03-02T01:52:25;4.43;;;2.23;;
3845;SDS011;1938;50.812;7.738;2024-03-02T01:54:50;6.30;;;3.33;;
3845;SDS011;1938;50.812;7.738;2024-03-02T01:57:16;6.80;;;2.77;;
3845;SDS011;1938;50.812;7.738;2024-03-02T01:59:42;6.90;;;2.87;;
3845;SDS011;1938;50.812;7.738;2024-03-02T02:02:08;6.60;;;3.43;;
3845;SDS011;1938;50.812;7.738;2024-03-02T02:04:34;8.33;;;3.23;;
3845;SDS011;1938;50.812;7.738;2024-03-02T02:06:59;6.17;;;2.60;;
3845;SDS011;1938;50.812;7.738;2024-03-02T02:09:25;5.47;;;2.33;;
3845;SDS011;1938;50.812;7.738;2024-03-02T02:11:51;6.67;;;3.23;;
3845;SDS011;1938;50.812;7.738;2024-03-02T02:14:17;6.17;;;2.50;;
3845;SDS011;1938;50.812;7.738;2024-03-02T02:16:42;8.80;;;3.63;;
3845;SDS011;1938;50.812;7.738;2024-03-02T02:19:08;13.30;;;3.23;;
3845;SDS011;1938;50.812;7.738;2024-03-02T02:21:34;6.47;;;3.00;;
3845;SDS011;1938;50.812;7.738;2024-03-02T02:24:00;8.93;;;2.80;;
3845;SDS011;1938;50.812;7.738;2024-03-02T02:26:28;6.60;;;3.70;;
3845;SDS011;1938;50.812;7.738;2024-03-02T02:28:53;7.77;;;3.30;;
3845;SDS011;1938;50.812;7.738;2024-03-02T02:31:19;5.70;;;2.47;;
3845;SDS011;1938;50.812;7.738;2024-03-02T02:33:45;9.50;;;3.23;;
3845;SDS011;1938;50.812;7.738;2024-03-02T02:36:10;6.33;;;3.60;;
3845;SDS011;1938;50.812;7.738;2024-03-02T02:38:37;5.33;;;2.17;;
3845;SDS011;1938;50.812;7.738;2024-03-02T02:41:05;8.27;;;2.97;;
3845;SDS011;1938;50.812;7.738;2024-03-02T02:43:30;8.03;;;2.83;;
3845;SDS011;1938;50.812;7.738;2024-03-02T02:45:56;5.73;;;2.77;;
3845;SDS011;1938;50.812;7.738;2024-03-02T02:48:21;8.00;;;3.13;;
3845;SDS011;1938;50.812;7.738;2024-03-02T02:50:47;8.07;;;3.03;;
3845;SDS011;1938;50.812;7.738;2024-03-02T02:53:13;9.43;;;3.50;;
3845;SDS011;1938;50.812;7.738;2024-03-02T02:55:41;8.00;;;3.10;;
3845;SDS011;1938;50.812;7.738;2024-03-02T02:58:08;6.27;;;3.23;;
3845;SDS011;1938;50.812;7.738;2024-03-02T03:00:34;8.27;;;4.30;;
3845;SDS011;1938;50.812;7.738;2024-03-02T03:03:01;7.53;;;3.20;;
3845;SDS011;1938;50.812;7.738;2024-03-02T03:05:27;8.07;;;3.73;;
3845;SDS011;1938;50.812;7.738;2024-03-02T03:07:53;5.67;;;2.57;;
3845;SDS011;1938;50.812;7.738;2024-03-02T03:10:18;5.97;;;2.90;;
3845;SDS011;1938;50.812;7.738;2024-03-02T03:12:47;10.00;;;4.00;;
3845;SDS011;1938;50.812;7.738;2024-03-02T03:15:12;7.23;;;3.00;;
3845;SDS011;1938;50.812;7.738;2024-03-02T03:17:39;7.30;;;3.10;;
3845;SDS011;1938;50.812;7.738;2024-03-02T03:20:05;9.57;;;3.50;;
3845;SDS011;1938;50.812;7.738;2024-03-02T03:22:34;9.50;;;3.97;;
3845;SDS011;1938;50.812;7.738;2024-03-02T03:25:01;5.57;;;3.40;;
3845;SDS011;1938;50.812;7.738;2024-03-02T03:27:26;7.87;;;3.20;;
3845;SDS011;1938;50.812;7.738;2024-03-02T03:29:52;7.77;;;3.80;;
3845;SDS011;1938;50.812;7.738;2024-03-02T03:32:18;10.50;;;3.73;;
3845;SDS011;1938;50.812;7.738;2024-03-02T03:34:44;7.07;;;4.10;;
3845;SDS011;1938;50.812;7.738;2024-03-02T03:37:09;14.83;;;3.17;;
3845;SDS011;1938;50.812;7.738;2024-03-02T03:39:35;8.10;;;3.37;;
3845;SDS011;1938;50.812;7.738;2024-03-02T03:42:01;6.83;;;3.30;;
3845;SDS011;1938;50.812;7.738;2024-03-02T03:44:26;8.77;;;3.50;;
3845;SDS011;1938;50.812;7.738;2024-03-02T03:46:52;8.33;;;3.27;;
3845;SDS011;1938;50.812;7.738;2024-03-02T03:49:17;7.23;;;3.60;;
3845;SDS011;1938;50.812;7.738;2024-03-02T03:51:43;9.73;;;3.33;;
3845;SDS011;1938;50.812;7.738;2024-03-02T03:54:09;6.63;;;3.17;;
3845;SDS011;1938;50.812;7.738;2024-03-02T03:56:36;9.90;;;4.00;;
3845;SDS011;1938;50.812;7.738;2024-03-02T03:59:02;6.87;;;3.30;;
3845;SDS011;1938;50.812;7.738;2024-03-02T04:01:28;6.80;;;3.40;;
3845;SDS011;1938;50.812;7.738;2024-03-02T04:03:53;7.83;;;4.13;;
3845;SDS011;1938;50.812;7.738;2024-03-02T04:06:19;8.53;;;3.70;;
3845;SDS011;1938;50.812;7.738;2024-03-02T04:08:44;8.20;;;3.47;;
3845;SDS011;1938;50.812;7.738;2024-03-02T04:11:10;8.40;;;4.07;;
3845;SDS011;1938;50.812;7.738;2024-03-02T04:13:35;19.07;;;6.23;;
3845;SDS011;1938;50.812;7.738;2024-03-02T04:16:01;6.50;;;3.50;;
3845;SDS011;1938;50.812;7.738;2024-03-02T04:18:28;6.90;;;3.43;;
3845;SDS011;1938;50.812;7.738;2024-03-02T04:20:54;10.50;;;4.50;;
3845;SDS011;1938;50.812;7.738;2024-03-02T04:23:19;8.33;;;3.70;;
3845;SDS011;1938;50.812;7.738;2024-03-02T04:25:45;7.57;;;3.47;;
3845;SDS011;1938;50.812;7.738;2024-03-02T04:28:10;8.30;;;3.77;;
3845;SDS011;1938;50.812;7.738;2024-03-02T04:30:37;7.40;;;3.37;;
3845;SDS011;1938;50.812;7.738;2024-03-02T04:33:03;6.37;;;3.27;;
3845;SDS011;1938;50.812;7.738;2024-03-02T04:35:29;6.67;;;3.30;;
3845;SDS011;1938;50.812;7.738;2024-03-02T04:37:54;6.67;;;3.33;;
3845;SDS011;1938;50.812;7.738;2024-03-02T04:40:20;7.30;;;3.47;;
3845;SDS011;1938;50.812;7.738;2024-03-02T04:42:45;8.80;;;3.80;;
3845;SDS011;1938;50.812;7.738;2024-03-02T04:45:11;8.23;;;4.60;;
3845;SDS011;1938;50.812;7.738;2024-03-02T04:47:36;6.93;;;3.80;;
3845;SDS011;1938;50.812;7.738;2024-03-02T04:50:02;6.47;;;3.50;;
3845;SDS011;1938;50.812;7.738;2024-03-02T04:52:28;6.83;;;3.40;;
3845;SDS011;1938;50.812;7.738;2024-03-02T04:54:53;8.50;;;4.03;;
3845;SDS011;1938;50.812;7.738;2024-03-02T04:57:34;8.43;;;4.07;;
3845;SDS011;1938;50.812;7.738;2024-03-02T05:00:00;5.83;;;3.30;;
3845;SDS011;1938;50.812;7.738;2024-03-02T05:02:26;6.17;;;3.33;;
3845;SDS011;1938;50.812;7.738;2024-03-02T05:04:51;8.00;;;3.93;;
3845;SDS011;1938;50.812;7.738;2024-03-02T05:07:17;8.60;;;3.30;;
3845;SDS011;1938;50.812;7.738;2024-03-02T05:09:42;10.83;;;4.67;;
3845;SDS011;1938;50.812;7.738;2024-03-02T05:12:08;6.87;;;3.60;;
3845;SDS011;1938;50.812;7.738;2024-03-02T05:14:48;7.87;;;3.63;;
3845;SDS011;1938;50.812;7.738;2024-03-02T05:17:13;10.13;;;4.70;;
3845;SDS011;1938;50.812;7.738;2024-03-02T05:19:39;6.73;;;3.67;;
3845;SDS011;1938;50.812;7.738;2024-03-02T05:22:04;9.90;;;4.20;;
3845;SDS011;1938;50.812;7.738;2024-03-02T05:24:30;9.13;;;3.80;;
3845;SDS011;1938;50.812;7.738;2024-03-02T05:26:56;14.43;;;4.97;;
3845;SDS011;1938;50.812;7.738;2024-03-02T05:29:21;6.80;;;3.03;;
3845;SDS011;1938;50.812;7.738;2024-03-02T05:31:48;6.03;;;2.87;;
3845;SDS011;1938;50.812;7.738;2024-03-02T05:34:13;6.20;;;3.33;;
3845;SDS011;1938;50.812;7.738;2024-03-02T05:36:39;8.20;;;3.87;;
3845;SDS011;1938;50.812;7.738;2024-03-02T05:39:05;8.40;;;3.50;;
3845;SDS011;1938;50.812;7.738;2024-03-02T05:41:34;8.60;;;4.20;;
3845;SDS011;1938;50.812;7.738;2024-03-02T05:43:59;9.30;;;3.87;;
3845;SDS011;1938;50.812;7.738;2024-03-02T05:46:25;8.93;;;4.07;;
3845;SDS011;1938;50.812;7.738;2024-03-02T05:48:51;7.07;;;3.47;;
3845;SDS011;1938;50.812;7.738;2024-03-02T05:51:17;7.10;;;3.53;;
3845;SDS011;1938;50.812;7.738;2024-03-02T05:53:42;8.43;;;3.60;;
3845;SDS011;1938;50.812;7.738;2024-03-02T05:56:08;7.00;;;3.47;;
3845;SDS011;1938;50.812;7.738;2024-03-02T05:58:34;9.00;;;3.17;;
3845;SDS011;1938;50.812;7.738;2024-03-02T06:01:23;6.30;;;2.90;;
3845;SDS011;1938;50.812;7.738;2024-03-02T06:03:53;7.83;;;4.00;;
3845;SDS011;1938;50.812;7.738;2024-03-02T06:06:20;6.10;;;3.30;;
3845;SDS011;1938;50.812;7.738;2024-03-02T06:08:46;9.13;;;3.77;;
3845;SDS011;1938;50.812;7.738;2024-03-02T06:11:11;9.13;;;3.50;;
3845;SDS011;1938;50.812;7.738;2024-03-02T06:13:37;6.80;;;3.30;;
3845;SDS011;1938;50.812;7.738;2024-03-02T06:16:02;6.47;;;2.73;;
3845;SDS011;1938;50.812;7.738;2024-03-02T06:18:28;7.07;;;3.20;;
3845;SDS011;1938;50.812;7.738;2024-03-02T06:20:54;7.80;;;3.20;;
3845;SDS011;1938;50.812;7.738;2024-03-02T06:23:19;5.70;;;2.80;;
3845;SDS011;1938;50.812;7.738;2024-03-02T06:25:45;9.97;;;3.00;;
3845;SDS011;1938;50.812;7.738;2024-03-02T06:28:10;7.07;;;2.60;;
3845;SDS011;1938;50.812;7.738;2024-03-02T06:30:36;5.60;;;2.60;;
3845;SDS011;1938;50.812;7.738;2024-03-02T06:33:01;5.97;;;2.70;;
3845;SDS011;1938;50.812;7.738;2024-03-02T06:35:28;9.50;;;3.30;;
3845;SDS011;1938;50.812;7.738;2024-03-02T06:37:54;5.90;;;3.37;;
3845;SDS011;1938;50.812;7.738;2024-03-02T06:40:20;6.30;;;3.00;;
3845;SDS011;1938;50.812;7.738;2024-03-02T06:42:46;5.40;;;2.40;;
3845;SDS011;1938;50.812;7.738;2024-03-02T06:45:12;7.50;;;4.13;;
3845;SDS011;1938;50.812;7.738;2024-03-02T06:47:38;43.47;;;19.50;;
3845;SDS011;1938;50.812;7.738;2024-03-02T06:50:03;67.23;;;30.97;;
3845;SDS011;1938;50.812;7.738;2024-03-02T06:52:30;31.00;;;17.57;;
3845;SDS011;1938;50.812;7.738;2024-03-02T06:54:56;7.10;;;3.57;;
3845;SDS011;1938;50.812;7.738;2024-03-02T06:57:21;6.90;;;3.23;;
3845;SDS011;1938;50.812;7.738;2024-03-02T06:59:47;5.17;;;3.00;;
3845;SDS011;1938;50.812;7.738;2024-03-02T07:02:15;8.40;;;3.27;;
3845;SDS011;1938;50.812;7.738;2024-03-02T07:04:40;7.07;;;3.23;;
3845;SDS011;1938;50.812;7.738;2024-03-02T07:07:06;5.53;;;3.23;;
3845;SDS011;1938;50.812;7.738;2024-03-02T07:09:32;9.80;;;2.80;;
3845;SDS011;1938;50.812;7.738;2024-03-02T07:11:57;7.30;;;2.67;;
3845;SDS011;1938;50.812;7.738;2024-03-02T07:14:23;5.77;;;3.27;;
3845;SDS011;1938;50.812;7.738;2024-03-02T07:17:08;7.17;;;2.80;;
3845;SDS011;1938;50.812;7.738;2024-03-02T07:19:35;7.43;;;3.47;;
3845;SDS011;1938;50.812;7.738;2024-03-02T07:22:01;5.77;;;2.80;;
3845;SDS011;1938;50.812;7.738;2024-03-02T07:24:30;6.60;;;3.10;;
3845;SDS011;1938;50.812;7.738;2024-03-02T07:26:56;6.60;;;3.00;;
3845;SDS011;1938;50.812;7.738;2024-03-02T07:29:21;6.03;;;3.00;;
3845;SDS011;1938;50.812;7.738;2024-03-02T07:31:48;7.40;;;3.60;;
3845;SDS011;1938;50.812;7.738;2024-03-02T07:34:14;6.40;;;3.47;;
3845;SDS011;1938;50.812;7.738;2024-03-02T07:36:39;7.53;;;3.23;;
3845;SDS011;1938;50.812;7.738;2024-03-02T07:39:05;7.47;;;2.40;;
3845;SDS011;1938;50.812;7.738;2024-03-02T07:41:32;5.67;;;3.10;;
3845;SDS011;1938;50.812;7.738;2024-03-02T07:43:58;8.80;;;3.40;;
3845;SDS011;1938;50.812;7.738;2024-03-02T07:46:23;5.37;;;2.73;;
3845;SDS011;1938;50.812;7.738;2024-03-02T07:48:49;6.17;;;3.00;;
3845;SDS011;1938;50.812;7.738;2024-03-02T07:51:16;4.30;;;2.20;;
3845;SDS011;1938;50.812;7.738;2024-03-02T07:53:42;7.50;;;2.43;;
3845;SDS011;1938;50.812;7.738;2024-03-02T07:56:07;4.40;;;2.23;;
3845;SDS011;1938;50.812;7.738;2024-03-02T07:58:33;6.73;;;2.60;;
3845;SDS011;1938;50.812;7.738;2024-03-02T08:01:00;4.33;;;2.20;;
3845;SDS011;1938;50.812;7.738;2024-03-02T08:03:26;5.57;;;2.33;;
3845;SDS011;1938;50.812;7.738;2024-03-02T08:05:52;6.40;;;2.30;;
3845;SDS011;1938;50.812;7.738;2024-03-02T08:08:17;4.50;;;2.10;;
3845;SDS011;1938;50.812;7.738;2024-03-02T08:10:43;6.63;;;2.50;;
3845;SDS011;1938;50.812;7.738;2024-03-02T08:13:09;5.97;;;2.30;;
3845;SDS011;1938;50.812;7.738;2024-03-02T08:15:34;11.60;;;2.60;;
3845;SDS011;1938;50.812;7.738;2024-03-02T08:18:00;4.37;;;1.90;;
3845;SDS011;1938;50.812;7.738;2024-03-02T08:20:26;5.50;;;2.60;;
3845;SDS011;1938;50.812;7.738;2024-03-02T08:22:52;5.80;;;2.50;;
3845;SDS011;1938;50.812;7.738;2024-03-02T08:25:20;5.20;;;2.93;;
3845;SDS011;1938;50.812;7.738;2024-03-02T08:27:45;5.80;;;2.10;;
3845;SDS011;1938;50.812;7.738;2024-03-02T08:30:11;6.87;;;2.33;;
3845;SDS011;1938;50.812;7.738;2024-03-02T08:32:38;5.80;;;2.50;;
3845;SDS011;1938;50.812;7.738;2024-03-02T08:35:05;6.93;;;2.77;;
3845;SDS011;1938;50.812;7.738;2024-03-02T08:37:31;4.77;;;2.57;;
3845;SDS011;1938;50.812;7.738;2024-03-02T08:39:57;4.70;;;2.23;;
3845;SDS011;1938;50.812;7.738;2024-03-02T08:42:23;5.87;;;2.67;;
3845;SDS011;1938;50.812;7.738;2024-03-02T08:44:48;5.87;;;2.40;;
3845;SDS011;1938;50.812;7.738;2024-03-02T08:47:14;6.50;;;2.53;;
3845;SDS011;1938;50.812;7.738;2024-03-02T08:49:40;8.17;;;2.60;;
3845;SDS011;1938;50.812;7.738;2024-03-02T08:52:05;6.50;;;2.20;;
3845;SDS011;1938;50.812;7.738;2024-03-02T08:54:31;7.30;;;2.17;;
3845;SDS011;1938;50.812;7.738;2024-03-02T08:56:58;5.77;;;1.90;;
3845;SDS011;1938;50.812;7.738;2024-03-02T08:59:24;4.73;;;2.40;;
3845;SDS011;1938;50.812;7.738;2024-03-02T09:01:50;4.53;;;2.07;;
3845;SDS011;1938;50.812;7.738;2024-03-02T09:04:15;6.37;;;2.40;;
3845;SDS011;1938;50.812;7.738;2024-03-02T09:06:41;4.97;;;2.30;;
3845;SDS011;1938;50.812;7.738;2024-03-02T09:09:07;4.67;;;2.13;;
3845;SDS011;1938;50.812;7.738;2024-03-02T09:11:33;6.33;;;2.13;;
3845;SDS011;1938;50.812;7.738;2024-03-02T09:13:59;8.67;;;3.97;;
3845;SDS011;1938;50.812;7.738;2024-03-02T09:16:25;13.13;;;7.17;;
3845;SDS011;1938;50.812;7.738;2024-03-02T09:18:55;5.50;;;2.63;;
3845;SDS011;1938;50.812;7.738;2024-03-02T09:21:21;3.97;;;1.83;;
3845;SDS011;1938;50.812;7.738;2024-03-02T09:23:47;5.47;;;2.00;;
3845;SDS011;1938;50.812;7.738;2024-03-02T09:26:13;5.00;;;2.17;;
3845;SDS011;1938;50.812;7.738;2024-03-02T09:28:42;6.47;;;2.37;;
3845;SDS011;1938;50.812;7.738;2024-03-02T09:31:08;6.47;;;2.23;;
3845;SDS011;1938;50.812;7.738;2024-03-02T09:33:34;7.00;;;2.20;;
3845;SDS011;1938;50.812;7.738;2024-03-02T09:35:59;6.77;;;2.57;;
3845;SDS011;1938;50.812;7.738;2024-03-02T09:38:25;6.70;;;2.70;;
3845;SDS011;1938;50.812;7.738;2024-03-02T09:40:51;5.70;;;2.67;;
3845;SDS011;1938;50.812;7.738;2024-03-02T09:43:16;5.70;;;2.43;;
3845;SDS011;1938;50.812;7.738;2024-03-02T09:45:42;7.53;;;2.43;;
3845;SDS011;1938;50.812;7.738;2024-03-02T09:48:09;7.27;;;2.70;;
3845;SDS011;1938;50.812;7.738;2024-03-02T09:50:35;6.30;;;3.13;;
3845;SDS011;1938;50.812;7.738;2024-03-02T09:53:01;5.70;;;2.73;;
3845;SDS011;1938;50.812;7.738;2024-03-02T09:55:27;9.13;;;2.90;;
3845;SDS011;1938;50.812;7.738;2024-03-02T09:57:53;5.40;;;2.27;;
3845;SDS011;1938;50.812;7.738;2024-03-02T10:00:18;7.40;;;2.20;;
3845;SDS011;1938;50.812;7.738;2024-03-02T10:02:44;5.07;;;2.60;;
3845;SDS011;1938;50.812;7.738;2024-03-02T10:05:14;5.40;;;2.30;;
3845;SDS011;1938;50.812;7.738;2024-03-02T10:07:59;5.33;;;2.80;;
3845;SDS011;1938;50.812;7.738;2024-03-02T10:10:34;5.10;;;2.50;;
3845;SDS011;1938;50.812;7.738;2024-03-02T10:13:08;5.23;;;2.20;;
3845;SDS011;1938;50.812;7.738;2024-03-02T10:15:35;9.53;;;4.77;;
3845;SDS011;1938;50.812;7.738;2024-03-02T10:18:07;12.67;;;7.07;;
3845;SDS011;1938;50.812;7.738;2024-03-02T10:20:37;30.00;;;10.73;;
3845;SDS011;1938;50.812;7.738;2024-03-02T10:23:10;5.80;;;2.90;;
3845;SDS011;1938;50.812;7.738;2024-03-02T10:25:40;5.20;;;2.20;;
3845;SDS011;1938;50.812;7.738;2024-03-02T10:28:06;7.33;;;3.13;;
3845;SDS011;1938;50.812;7.738;2024-03-02T10:30:35;7.70;;;2.30;;
3845;SDS011;1938;50.812;7.738;2024-03-02T10:33:01;5.03;;;2.30;;
3845;SDS011;1938;50.812;7.738;2024-03-02T10:35:27;4.10;;;2.20;;
3845;SDS011;1938;50.812;7.738;2024-03-02T10:37:53;5.60;;;2.10;;
3845;SDS011;1938;50.812;7.738;2024-03-02T10:40:22;5.90;;;2.70;;
3845;SDS011;1938;50.812;7.738;2024-03-02T10:42:49;5.00;;;2.30;;
3845;SDS011;1938;50.812;7.738;2024-03-02T10:45:16;6.97;;;2.63;;
3845;SDS011;1938;50.812;7.738;2024-03-02T10:47:44;5.80;;;2.73;;
3845;SDS011;1938;50.812;7.738;2024-03-02T10:50:11;4.10;;;1.97;;
3845;SDS011;1938;50.812;7.738;2024-03-02T10:52:37;4.63;;;2.10;;
3845;SDS011;1938;50.812;7.738;2024-03-02T10:55:08;4.50;;;1.80;;
3845;SDS011;1938;50.812;7.738;2024-03-02T10:58:07;3.17;;;1.40;;
3845;SDS011;1938;50.812;7.738;2024-03-02T11:00:31;5.00;;;1.90;;
3845;SDS011;1938;50.812;7.738;2024-03-02T11:03:06;4.93;;;2.30;;
3845;SDS011;1938;50.812;7.738;2024-03-02T11:05:36;3.93;;;2.00;;
3845;SDS011;1938;50.812;7.738;2024-03-02T11:08:11;3.77;;;1.93;;
3845;SDS011;1938;50.812;7.738;2024-03-02T11:10:42;3.63;;;1.70;;
3845;SDS011;1938;50.812;7.738;2024-03-02T11:13:16;4.33;;;1.87;;
3845;SDS011;1938;50.812;7.738;2024-03-02T11:15:49;4.10;;;1.80;;
3845;SDS011;1938;50.812;7.738;2024-03-02T11:18:20;5.10;;;1.73;;
3845;SDS011;1938;50.812;7.738;2024-03-02T11:20:46;4.43;;;2.00;;
3845;SDS011;1938;50.812;7.738;2024-03-02T11:23:12;4.50;;;2.00;;
3845;SDS011;1938;50.812;7.738;2024-03-02T11:25:39;4.70;;;2.30;;
3845;SDS011;1938;50.812;7.738;2024-03-02T11:28:05;5.50;;;1.93;;
3845;SDS011;1938;50.812;7.738;2024-03-02T11:32:57;5.40;;;2.17;;
3845;SDS011;1938;50.812;7.738;2024-03-02T11:35:32;5.40;;;1.90;;
3845;SDS011;1938;50.812;7.738;2024-03-02T11:37:58;3.93;;;1.87;;
3845;SDS011;1938;50.812;7.738;2024-03-02T11:40:24;4.27;;;2.00;;
3845;SDS011;1938;50.812;7.738;2024-03-02T11:42:50;6.50;;;1.80;;
3845;SDS011;1938;50.812;7.738;2024-03-02T11:45:16;3.60;;;2.03;;
3845;SDS011;1938;50.812;7.738;2024-03-02T11:47:46;4.80;;;1.97;;
3845;SDS011;1938;50.812;7.738;2024-03-02T11:50:15;3.60;;;1.70;;
3845;SDS011;1938;50.812;7.738;2024-03-02T11:52:41;4.20;;;1.80;;
3845;SDS011;1938;50.812;7.738;2024-03-02T11:55:08;3.90;;;1.97;;
3845;SDS011;1938;50.812;7.738;2024-03-02T11:57:36;5.10;;;1.80;;
3845;SDS011;1938;50.812;7.738;2024-03-02T12:00:03;4.20;;;2.10;;
3845;SDS011;1938;50.812;7.738;2024-03-02T12:02:29;4.70;;;2.13;;
3845;SDS011;1938;50.812;7.738;2024-03-02T12:04:54;7.10;;;2.00;;
3845;SDS011;1938;50.812;7.738;2024-03-02T12:07:22;4.53;;;2.50;;
3845;SDS011;1938;50.812;7.738;2024-03-02T12:09:48;4.80;;;2.63;;
3845;SDS011;1938;50.812;7.738;2024-03-02T12:12:23;4.80;;;1.90;;
3845;SDS011;1938;50.812;7.738;2024-03-02T12:14:50;4.13;;;2.43;;
3845;SDS011;1938;50.812;7.738;2024-03-02T12:17:18;4.53;;;2.40;;
3845;SDS011;1938;50.812;7.738;2024-03-02T12:19:44;3.80;;;2.00;;
3845;SDS011;1938;50.812;7.738;2024-03-02T12:22:11;4.73;;;1.87;;
3845;SDS011;1938;50.812;7.738;2024-03-02T12:24:36;5.67;;;2.17;;
3845;SDS011;1938;50.812;7.738;2024-03-02T12:27:02;5.23;;;2.27;;
3845;SDS011;1938;50.812;7.738;2024-03-02T12:29:29;3.60;;;1.80;;
3845;SDS011;1938;50.812;7.738;2024-03-02T12:31:55;5.30;;;2.53;;
3845;SDS011;1938;50.812;7.738;2024-03-02T12:34:21;3.80;;;1.80;;
3845;SDS011;1938;50.812;7.738;2024-03-02T12:36:47;4.40;;;2.30;;
3845;SDS011;1938;50.812;7.738;2024-03-02T12:39:14;3.87;;;1.70;;
3845;SDS011;1938;50.812;7.738;2024-03-02T12:41:41;5.70;;;2.13;;
3845;SDS011;1938;50.812;7.738;2024-03-02T12:44:07;6.63;;;2.10;;
3845;SDS011;1938;50.812;7.738;2024-03-02T12:46:33;4.57;;;2.07;;
3845;SDS011;1938;50.812;7.738;2024-03-02T12:49:04;6.03;;;2.37;;
3845;SDS011;1938;50.812;7.738;2024-03-02T12:51:33;4.13;;;1.80;;
3845;SDS011;1938;50.812;7.738;2024-03-02T12:53:59;4.10;;;1.73;;
3845;SDS011;1938;50.812;7.738;2024-03-02T12:56:25;3.47;;;2.03;;
3845;SDS011;1938;50.812;7.738;2024-03-02T12:58:54;4.10;;;1.73;;
3845;SDS011;1938;50.812;7.738;2024-03-02T13:01:20;3.80;;;1.60;;
3845;SDS011;1938;50.812;7.738;2024-03-02T13:03:47;4.43;;;1.40;;
3845;SDS011;1938;50.812;7.738;2024-03-02T13:06:14;3.93;;;1.87;;
3845;SDS011;1938;50.812;7.738;2024-03-02T13:08:41;3.27;;;1.73;;
3845;SDS011;1938;50.812;7.738;2024-03-02T13:11:07;3.57;;;1.50;;
3845;SDS011;1938;50.812;7.738;2024-03-02T13:13:33;5.07;;;1.90;;
3845;SDS011;1938;50.812;7.738;2024-03-02T13:15:59;5.07;;;1.90;;
3845;SDS011;1938;50.812;7.738;2024-03-02T13:18:25;6.13;;;1.97;;
3845;SDS011;1938;50.812;7.738;2024-03-02T13:20:51;4.60;;;1.77;;
3845;SDS011;1938;50.812;7.738;2024-03-02T13:23:17;5.50;;;2.80;;
3845;SDS011;1938;50.812;7.738;2024-03-02T13:25:42;4.43;;;1.97;;
3845;SDS011;1938;50.812;7.738;2024-03-02T13:28:08;3.47;;;1.67;;
3845;SDS011;1938;50.812;7.738;2024-03-02T13:30:34;6.07;;;3.03;;
3845;SDS011;1938;50.812;7.738;2024-03-02T13:32:59;6.70;;;2.70;;
3845;SDS011;1938;50.812;7.738;2024-03-02T13:35:25;4.50;;;2.00;;
3845;SDS011;1938;50.812;7.738;2024-03-02T13:37:51;4.63;;;2.17;;
3845;SDS011;1938;50.812;7.738;2024-03-02T13:40:16;5.57;;;2.20;;
3845;SDS011;1938;50.812;7.738;2024-03-02T13:42:45;3.40;;;1.80;;
3845;SDS011;1938;50.812;7.738;2024-03-02T13:45:12;4.80;;;2.60;;
3845;SDS011;1938;50.812;7.738;2024-03-02T13:47:41;5.83;;;2.13;;
3845;SDS011;1938;50.812;7.738;2024-03-02T13:50:07;4.60;;;1.83;;
3845;SDS011;1938;50.812;7.738;2024-03-02T13:52:32;4.20;;;1.90;;
3845;SDS011;1938;50.812;7.738;2024-03-02T13:54:58;5.80;;;1.80;;
3845;SDS011;1938;50.812;7.738;2024-03-02T13:57:24;3.10;;;1.50;;
3845;SDS011;1938;50.812;7.738;2024-03-02T13:59:49;3.83;;;1.60;;
3845;SDS011;1938;50.812;7.738;2024-03-02T14:02:17;3.30;;;1.60;;
3845;SDS011;1938;50.812;7.738;2024-03-02T14:04:43;3.60;;;1.57;;
3845;SDS011;1938;50.812;7.738;2024-03-02T14:07:08;4.83;;;1.60;;
3845;SDS011;1938;50.812;7.738;2024-03-02T14:09:35;5.23;;;1.70;;
3845;SDS011;1938;50.812;7.738;2024-03-02T14:12:01;3.87;;;1.80;;
3845;SDS011;1938;50.812;7.738;2024-03-02T14:14:28;4.37;;;1.40;;
3845;SDS011;1938;50.812;7.738;2024-03-02T14:16:56;3.00;;;1.43;;
3845;SDS011;1938;50.812;7.738;2024-03-02T14:19:25;4.30;;;1.27;;
3845;SDS011;1938;50.812;7.738;2024-03-02T14:21:51;4.20;;;1.67;;
3845;SDS011;1938;50.812;7.738;2024-03-02T14:24:17;3.47;;;1.50;;
3845;SDS011;1938;50.812;7.738;2024-03-02T14:26:43;3.23;;;1.43;;
3845;SDS011;1938;50.812;7.738;2024-03-02T14:29:08;3.40;;;1.30;;
3845;SDS011;1938;50.812;7.738;2024-03-02T14:31:34;4.87;;;1.87;;
3845;SDS011;1938;50.812;7.738;2024-03-02T14:33:59;3.57;;;1.30;;
3845;SDS011;1938;50.812;7.738;2024-03-02T14:36:25;2.43;;;1.00;;
3845;SDS011;1938;50.812;7.738;2024-03-02T14:38:54;5.87;;;1.70;;
3845;SDS011;1938;50.812;7.738;2024-03-02T14:41:20;3.07;;;1.33;;
3845;SDS011;1938;50.812;7.738;2024-03-02T14:43:46;2.50;;;1.27;;
3845;SDS011;1938;50.812;7.738;2024-03-02T14:46:11;3.77;;;1.43;;
3845;SDS011;1938;50.812;7.738;2024-03-02T14:48:37;2.80;;;1.10;;
3845;SDS011;1938;50.812;7.738;2024-03-02T14:51:04;3.97;;;1.30;;
3845;SDS011;1938;50.812;7.738;2024-03-02T14:53:33;4.17;;;1.43;;
3845;SDS011;1938;50.812;7.738;2024-03-02T14:55:58;3.60;;;1.47;;
3845;SDS011;1938;50.812;7.738;2024-03-02T14:58:24;4.23;;;1.40;;
3845;SDS011;1938;50.812;7.738;2024-03-02T15:00:50;3.43;;;1.50;;
3845;SDS011;1938;50.812;7.738;2024-03-02T15:03:16;3.30;;;1.80;;
3845;SDS011;1938;50.812;7.738;2024-03-02T15:05:42;4.47;;;1.30;;
3845;SDS011;1938;50.812;7.738;2024-03-02T15:08:07;3.00;;;1.33;;
3845;SDS011;1938;50.812;7.738;2024-03-02T15:10:33;4.30;;;1.43;;
3845;SDS011;1938;50.812;7.738;2024-03-02T15:12:58;2.63;;;1.10;;
3845;SDS011;1938;50.812;7.738;2024-03-02T15:15:24;3.00;;;1.40;;
3845;SDS011;1938;50.812;7.738;2024-03-02T15:17:50;4.73;;;1.00;;